Time;durP1;ratioP1;P1;durP2;ratioP2;P2;SDS_P1;SDS_P2;PMS_P1;PMS_P2;Temp;Humidity;BMP_temperature;BMP_pressure;BME280_temperature;BME280_humidity;BME280_pressure;Samples;Min_cycle;Max_cycle;Signal;HPM_P1;HPM_P2
2021/07/11 00:00:29;;;;;;;16.60;15.00;;;;;;;;;;5093669;28;20196;-61
2021/07/11 00:02:57;;;;;;;14.05;12.75;;;;;;;;;;5093732;28;20559;-62
2021/07/11 00:05:26;;;;;;;16.13;14.52;;;;;;;;;;5093451;28;20697;-61
2021/07/11 00:07:54;;;;;;;15.68;14.27;;;;;;;;;;5093429;28;20239;-60
2021/07/11 00:10:23;;;;;;;15.05;13.65;;;;;;;;;;5093533;28;20196;-60
2021/07/11 00:12:51;;;;;;;16.05;14.35;;;;;;;;;;5093574;28;20200;-61
2021/07/11 00:15:23;;;;;;;15.63;14.23;;;;;;;;;;5093076;28;20583;-60
2021/07/11 00:17:52;;;;;;;15.05;13.65;;;;;;;;;;5093598;28;20236;-62
2021/07/11 00:20:21;;;;;;;16.08;14.68;;;;;;;;;;5093332;28;20223;-61
2021/07/11 00:22:49;;;;;;;15.10;13.70;;;;;;;;;;5093467;28;20202;-61
2021/07/11 00:25:17;;;;;;;16.15;14.75;;;;;;;;;;5093119;28;20238;-61
2021/07/11 00:27:48;;;;;;;15.88;14.52;;;;;;;;;;5093388;28;20214;-62
2021/07/11 00:30:17;;;;;;;15.98;14.57;;;;;;;;;;5093339;28;20283;-60
2021/07/11 00:32:46;;;;;;;14.48;13.27;;;;;;;;;;5093282;28;20283;-60
2021/07/11 00:35:15;;;;;;;14.80;13.57;;;;;;;;;;5093227;28;20319;-60
2021/07/11 00:37:44;;;;;;;16.10;14.77;;;;;;;;;;5093014;28;20615;-62
2021/07/11 00:40:13;;;;;;;15.55;14.18;;;;;;;;;;5092406;28;20561;-62
2021/07/11 00:42:41;;;;;;;14.40;13.10;;;;;;;;;;5077271;28;20247;-61
2021/07/11 00:45:10;;;;;;;14.88;13.52;;;;;;;;;;5088476;28;20231;-61
2021/07/11 00:47:39;;;;;;;14.23;12.93;;;;;;;;;;5097591;28;20601;-61
2021/07/11 00:50:09;;;;;;;14.77;13.57;;;;;;;;;;5093845;28;20323;-60
2021/07/11 00:52:38;;;;;;;15.25;13.90;;;;;;;;;;5092069;28;20204;-61
2021/07/11 00:55:07;;;;;;;13.90;12.70;;;;;;;;;;5091866;28;20287;-59
2021/07/11 00:57:36;;;;;;;14.20;13.00;;;;;;;;;;5092735;28;20203;-59
2021/07/11 01:00:06;;;;;;;13.70;12.50;;;;;;;;;;5092777;28;20298;-60
2021/07/11 01:02:36;;;;;;;14.18;12.93;;;;;;;;;;5092800;28;20184;-60
2021/07/11 01:05:07;;;;;;;14.90;13.60;;;;;;;;;;5092664;28;20194;-60
2021/07/11 01:07:38;;;;;;;15.00;13.68;;;;;;;;;;5088561;28;20299;-60
2021/07/11 01:10:08;;;;;;;14.40;13.10;;;;;;;;;;5077253;28;20190;-61
2021/07/11 01:12:40;;;;;;;13.73;12.40;;;;;;;;;;5086955;28;20212;-60
2021/07/11 01:15:08;;;;;;;14.77;13.50;;;;;;;;;;5092499;28;20194;-59
2021/07/11 01:17:37;;;;;;;14.27;12.98;;;;;;;;;;5092199;28;20740;-59
2021/07/11 01:20:10;;;;;;;15.60;14.20;;;;;;;;;;5092544;28;20235;-62
2021/07/11 01:22:44;;;;;;;14.45;13.25;;;;;;;;;;5092413;28;20177;-61
2021/07/11 01:25:13;;;;;;;13.60;12.50;;;;;;;;;;5092355;28;20188;-60
2021/07/11 01:27:43;;;;;;;15.00;13.80;;;;;;;;;;5095736;28;20247;-63
2021/07/11 01:30:12;;;;;;;14.95;13.65;;;;;;;;;;5096482;28;20612;-60
2021/07/11 01:32:41;;;;;;;15.48;14.18;;;;;;;;;;5096312;28;20216;-61
2021/07/11 01:35:10;;;;;;;15.45;13.88;;;;;;;;;;5096060;28;20214;-62
2021/07/11 01:37:39;;;;;;;15.35;13.95;;;;;;;;;;5100685;28;20203;-62
2021/07/11 01:40:08;;;;;;;15.95;14.45;;;;;;;;;;5116539;28;20277;-61
2021/07/11 01:42:37;;;;;;;16.40;14.68;;;;;;;;;;5116996;28;20290;-61
2021/07/11 01:45:07;;;;;;;14.13;12.93;;;;;;;;;;5116982;28;20203;-60
2021/07/11 01:47:36;;;;;;;15.57;14.07;;;;;;;;;;5102555;28;20228;-60
2021/07/11 01:50:06;;;;;;;15.38;14.07;;;;;;;;;;5096235;28;20255;-60
2021/07/11 01:52:34;;;;;;;15.57;14.18;;;;;;;;;;5096118;28;20716;-60
2021/07/11 01:55:03;;;;;;;16.05;14.40;;;;;;;;;;5097255;28;20200;-60
2021/07/11 01:57:31;;;;;;;16.00;14.48;;;;;;;;;;5096990;28;20290;-61
2021/07/11 01:59:59;;;;;;;15.48;14.18;;;;;;;;;;5096990;28;20197;-62
2021/07/11 02:02:30;;;;;;;15.82;14.40;;;;;;;;;;5096338;28;20782;-63
2021/07/11 02:04:58;;;;;;;14.98;13.68;;;;;;;;;;5097063;28;20272;-63
2021/07/11 02:07:26;;;;;;;15.88;14.40;;;;;;;;;;5098967;28;20652;-62
2021/07/11 02:09:54;;;;;;;16.65;15.05;;;;;;;;;;5116847;28;20666;-62
2021/07/11 02:12:24;;;;;;;15.15;13.75;;;;;;;;;;5116747;28;20207;-62
2021/07/11 02:14:55;;;;;;;15.90;14.50;;;;;;;;;;5116834;28;20812;-62
2021/07/11 02:17:26;;;;;;;14.60;13.40;;;;;;;;;;5117118;28;20180;-63
2021/07/11 02:20:00;;;;;;;16.25;14.75;;;;;;;;;;5078912;28;20207;-61
2021/07/11 02:22:28;;;;;;;15.55;14.15;;;;;;;;;;5077038;28;20276;-60
2021/07/11 02:24:57;;;;;;;17.48;13.95;;;;;;;;;;5076852;28;20211;-60
2021/07/11 02:27:25;;;;;;;15.98;14.48;;;;;;;;;;5076863;28;20651;-59
2021/07/11 02:29:56;;;;;;;15.75;14.25;;;;;;;;;;5076149;28;20312;-61
2021/07/11 02:32:26;;;;;;;15.25;13.98;;;;;;;;;;5074917;28;20204;-61
2021/07/11 02:34:55;;;;;;;16.08;14.70;;;;;;;;;;5075301;28;20201;-61
2021/07/11 02:37:24;;;;;;;15.48;13.98;;;;;;;;;;5079179;28;20243;-61
2021/07/11 02:39:53;;;;;;;16.13;14.63;;;;;;;;;;5115558;28;20199;-62
2021/07/11 02:42:22;;;;;;;17.52;15.82;;;;;;;;;;5115758;28;20202;-60
2021/07/11 02:44:52;;;;;;;15.85;14.55;;;;;;;;;;5115580;28;20199;-61
2021/07/11 02:47:23;;;;;;;15.27;13.88;;;;;;;;;;5103154;28;20211;-60
2021/07/11 02:49:53;;;;;;;16.55;14.95;;;;;;;;;;5094409;28;20586;-60
2021/07/11 02:52:23;;;;;;;15.63;14.30;;;;;;;;;;5094067;28;20230;-59
2021/07/11 02:54:53;;;;;;;15.90;14.60;;;;;;;;;;5096121;28;20196;-60
2021/07/11 02:57:24;;;;;;;16.58;15.10;;;;;;;;;;5096146;28;20263;-60
2021/07/11 02:59:53;;;;;;;16.88;15.38;;;;;;;;;;5094799;28;20279;-59
2021/07/11 03:02:23;;;;;;;15.85;14.45;;;;;;;;;;5095021;28;20654;-60
2021/07/11 03:04:52;;;;;;;15.35;13.85;;;;;;;;;;5094877;28;20623;-60
2021/07/11 03:07:21;;;;;;;16.02;14.48;;;;;;;;;;5096532;28;20716;-60
2021/07/11 03:09:50;;;;;;;15.88;14.48;;;;;;;;;;5115398;28;20195;-61
2021/07/11 03:12:19;;;;;;;16.52;14.93;;;;;;;;;;5114286;28;20271;-61
2021/07/11 03:14:49;;;;;;;15.57;14.27;;;;;;;;;;5114405;28;20209;-60
2021/07/11 03:17:19;;;;;;;15.98;14.43;;;;;;;;;;5114213;28;20195;-60
2021/07/11 03:19:50;;;;;;;16.00;14.68;;;;;;;;;;5114092;28;20217;-60
2021/07/11 03:22:19;;;;;;;15.27;13.88;;;;;;;;;;5113805;28;20283;-59
2021/07/11 03:24:47;;;;;;;16.55;15.02;;;;;;;;;;5113742;28;20299;-61
2021/07/11 03:27:16;;;;;;;15.95;14.43;;;;;;;;;;5113889;28;20203;-61
2021/07/11 03:29:52;;;;;;;14.52;13.32;;;;;;;;;;5113816;28;20203;-61
2021/07/11 03:32:22;;;;;;;15.30;13.95;;;;;;;;;;5113914;28;20299;-60
2021/07/11 03:34:51;;;;;;;15.02;13.55;;;;;;;;;;5113929;28;20203;-61
2021/07/11 03:37:21;;;;;;;14.55;13.35;;;;;;;;;;5113744;28;20195;-60
2021/07/11 03:39:51;;;;;;;14.85;13.38;;;;;;;;;;5113364;28;20673;-60
2021/07/11 03:42:21;;;;;;;14.00;12.68;;;;;;;;;;5113707;28;20183;-60
2021/07/11 03:44:53;;;;;;;14.70;13.05;;;;;;;;;;5113812;28;20579;-59
2021/07/11 03:47:22;;;;;;;13.65;12.35;;;;;;;;;;5100830;28;20198;-60
2021/07/11 03:49:52;;;;;;;12.48;11.35;;;;;;;;;;5092211;28;20232;-60
2021/07/11 03:52:22;;;;;;;13.10;11.90;;;;;;;;;;5092595;28;20735;-60
2021/07/11 03:54:52;;;;;;;13.10;11.80;;;;;;;;;;5092774;28;20280;-60
2021/07/11 03:57:22;;;;;;;12.48;11.48;;;;;;;;;;5093098;28;20192;-60
2021/07/11 03:59:50;;;;;;;12.68;11.57;;;;;;;;;;5092758;28;20200;-61
2021/07/11 04:02:19;;;;;;;12.48;11.38;;;;;;;;;;5093011;28;20290;-59
2021/07/11 04:04:48;;;;;;;13.23;11.80;;;;;;;;;;5092868;28;20303;-61
2021/07/11 04:07:20;;;;;;;12.57;11.48;;;;;;;;;;5093624;28;20672;-61
2021/07/11 04:09:49;;;;;;;12.68;11.55;;;;;;;;;;5113230;28;20265;-60
2021/07/11 04:12:17;;;;;;;12.90;11.52;;;;;;;;;;5113307;28;20206;-60
2021/07/11 04:14:46;;;;;;;12.77;11.65;;;;;;;;;;5113395;28;20199;-60
2021/07/11 04:17:14;;;;;;;11.57;10.52;;;;;;;;;;5112962;28;20199;-59
2021/07/11 04:19:44;;;;;;;12.40;11.20;;;;;;;;;;5113123;28;20202;-61
2021/07/11 04:22:13;;;;;;;12.00;10.85;;;;;;;;;;5113004;28;20279;-60
2021/07/11 04:24:43;;;;;;;11.63;10.60;;;;;;;;;;5112606;28;20200;-60
2021/07/11 04:27:12;;;;;;;12.23;11.02;;;;;;;;;;5112814;28;20662;-60
2021/07/11 04:29:40;;;;;;;12.77;10.77;;;;;;;;;;5112968;28;20201;-61
2021/07/11 04:32:10;;;;;;;13.25;12.05;;;;;;;;;;5113090;28;20238;-60
2021/07/11 04:34:39;;;;;;;12.30;11.07;;;;;;;;;;5112483;28;20557;-60
2021/07/11 04:37:08;;;;;;;11.75;10.65;;;;;;;;;;5112426;28;20747;-60
2021/07/11 04:39:36;;;;;;;12.45;11.35;;;;;;;;;;5112397;28;20207;-60
2021/07/11 04:42:05;;;;;;;12.50;11.25;;;;;;;;;;5112495;28;20854;-60
2021/07/11 04:44:33;;;;;;;11.48;10.48;;;;;;;;;;5112666;28;20270;-61
2021/07/11 04:47:01;;;;;;;11.30;10.25;;;;;;;;;;5102855;28;20200;-60
2021/07/11 04:49:31;;;;;;;11.05;10.05;;;;;;;;;;5092068;28;20200;-60
2021/07/11 04:51:59;;;;;;;11.75;10.65;;;;;;;;;;5092312;28;20269;-61
2021/07/11 04:54:27;;;;;;;10.77;9.77;;;;;;;;;;5092128;28;20270;-59
2021/07/11 04:56:56;;;;;;;11.77;10.73;;;;;;;;;;5092058;28;20644;-60
2021/07/11 04:59:24;;;;;;;10.15;9.25;;;;;;;;;;5091945;28;20199;-60
2021/07/11 05:01:52;;;;;;;10.93;9.93;;;;;;;;;;5095878;28;20206;-60
2021/07/11 05:04:20;;;;;;;11.88;10.77;;;;;;;;;;5096337;28;20236;-60
2021/07/11 05:06:50;;;;;;;10.70;9.77;;;;;;;;;;5095925;28;20714;-59
2021/07/11 05:09:18;;;;;;;10.10;9.30;;;;;;;;;;5114318;28;20202;-60
2021/07/11 05:11:46;;;;;;;10.63;9.63;;;;;;;;;;5116743;28;20199;-59
2021/07/11 05:14:14;;;;;;;10.95;9.85;;;;;;;;;;5116500;28;20301;-60
2021/07/11 05:16:43;;;;;;;10.63;9.73;;;;;;;;;;5116346;28;20651;-60
2021/07/11 05:19:11;;;;;;;10.38;9.48;;;;;;;;;;5116391;28;20306;-60
2021/07/11 05:21:39;;;;;;;11.05;10.02;;;;;;;;;;5116340;28;20203;-60
2021/07/11 05:24:08;;;;;;;10.65;9.75;;;;;;;;;;5116380;28;20195;-60
2021/07/11 05:26:37;;;;;;;10.40;9.40;;;;;;;;;;5116598;28;20196;-60
2021/07/11 05:29:05;;;;;;;10.63;9.63;;;;;;;;;;5116533;28;20195;-60
2021/07/11 05:31:33;;;;;;;9.55;8.75;;;;;;;;;;5116760;28;20278;-61
2021/07/11 05:34:01;;;;;;;9.90;9.07;;;;;;;;;;5121479;28;20265;-60
2021/07/11 05:36:29;;;;;;;11.02;9.80;;;;;;;;;;5121542;28;20221;-60
2021/07/11 05:38:58;;;;;;;10.07;9.18;;;;;;;;;;5118291;28;20380;-59
2021/07/11 05:41:27;;;;;;;9.70;8.80;;;;;;;;;;5116214;28;20314;-59
2021/07/11 05:43:55;;;;;;;8.95;8.25;;;;;;;;;;5116467;28;20199;-60
2021/07/11 05:46:23;;;;;;;9.82;8.95;;;;;;;;;;5112116;28;20235;-60
2021/07/11 05:48:52;;;;;;;11.18;10.07;;;;;;;;;;5096228;28;20348;-60
2021/07/11 05:51:20;;;;;;;10.40;9.50;;;;;;;;;;5095754;28;20723;-60
2021/07/11 05:53:48;;;;;;;9.50;8.70;;;;;;;;;;5095888;28;20223;-62
2021/07/11 05:56:17;;;;;;;10.88;9.73;;;;;;;;;;5096046;28;20304;-60
2021/07/11 05:58:46;;;;;;;10.30;9.40;;;;;;;;;;5096051;28;20202;-61
2021/07/11 06:01:14;;;;;;;10.60;9.70;;;;;;;;;;5095958;28;20291;-60
2021/07/11 06:03:43;;;;;;;9.00;8.20;;;;;;;;;;5095812;28;20223;-60
2021/07/11 06:06:11;;;;;;;9.65;8.85;;;;;;;;;;5095791;28;20283;-60
2021/07/11 06:08:39;;;;;;;10.05;9.05;;;;;;;;;;5108424;28;20225;-60
2021/07/11 06:11:07;;;;;;;9.77;8.77;;;;;;;;;;5116267;28;20294;-61
2021/07/11 06:13:35;;;;;;;9.32;8.45;;;;;;;;;;5114963;28;20299;-61
2021/07/11 06:16:05;;;;;;;10.00;9.05;;;;;;;;;;5115956;28;20203;-60
2021/07/11 06:18:34;;;;;;;8.65;7.90;;;;;;;;;;5116425;28;20191;-60
2021/07/11 06:21:02;;;;;;;8.90;8.05;;;;;;;;;;5115881;28;20205;-61
2021/07/11 06:23:30;;;;;;;8.25;7.60;;;;;;;;;;5115959;28;20299;-60
2021/07/11 06:25:58;;;;;;;8.55;7.72;;;;;;;;;;5115605;28;20765;-60
2021/07/11 06:28:26;;;;;;;8.38;7.57;;;;;;;;;;5115655;28;20697;-60
2021/07/11 06:30:54;;;;;;;9.43;7.30;;;;;;;;;;5115995;28;20222;-61
2021/07/11 06:33:24;;;;;;;8.23;7.53;;;;;;;;;;5115480;28;20295;-60
2021/07/11 06:35:52;;;;;;;8.52;7.70;;;;;;;;;;5115650;28;20237;-61
2021/07/11 06:38:20;;;;;;;9.50;8.63;;;;;;;;;;5115756;28;20302;-60
2021/07/11 06:40:52;;;;;;;8.30;7.25;;;;;;;;;;5115332;28;20184;-60
2021/07/11 06:43:20;;;;;;;8.43;7.38;;;;;;;;;;5115360;28;20294;-61
2021/07/11 06:45:48;;;;;;;8.25;7.55;;;;;;;;;;5115667;28;20285;-60
2021/07/11 06:48:16;;;;;;;7.65;7.05;;;;;;;;;;5074901;28;20196;-60
2021/07/11 06:50:46;;;;;;;8.10;7.40;;;;;;;;;;5073985;28;20239;-61
2021/07/11 06:53:14;;;;;;;8.13;7.10;;;;;;;;;;5074621;28;20236;-61
2021/07/11 06:55:42;;;;;;;8.27;7.60;;;;;;;;;;5074490;28;20221;-61
2021/07/11 06:58:10;;;;;;;8.27;7.57;;;;;;;;;;5074668;28;20210;-61
2021/07/11 07:00:39;;;;;;;7.95;7.20;;;;;;;;;;5074649;28;20197;-60
2021/07/11 07:03:07;;;;;;;7.80;7.20;;;;;;;;;;5074548;28;20208;-60
2021/07/11 07:05:35;;;;;;;8.57;7.60;;;;;;;;;;5078693;28;20208;-61
2021/07/11 07:08:05;;;;;;;7.75;7.13;;;;;;;;;;5087043;28;20303;-60
2021/07/11 07:10:33;;;;;;;7.53;6.82;;;;;;;;;;5074296;28;20196;-60
2021/07/11 07:13:01;;;;;;;7.50;7.00;;;;;;;;;;5074171;28;20299;-60
2021/07/11 07:15:30;;;;;;;8.68;7.88;;;;;;;;;;5073897;28;20216;-61
2021/07/11 07:17:58;;;;;;;7.95;7.20;;;;;;;;;;5074293;28;20296;-60
2021/07/11 07:20:28;;;;;;;8.18;7.40;;;;;;;;;;5074207;28;20204;-60
2021/07/11 07:22:56;;;;;;;8.25;7.45;;;;;;;;;;5074266;28;20201;-60
2021/07/11 07:25:26;;;;;;;7.80;7.03;;;;;;;;;;5076557;28;20224;-62
2021/07/11 07:27:54;;;;;;;6.93;6.22;;;;;;;;;;5075533;28;20320;-61
2021/07/11 07:30:22;;;;;;;7.20;6.60;;;;;;;;;;5074212;28;20196;-61
2021/07/11 07:32:51;;;;;;;6.60;6.10;;;;;;;;;;5074316;28;20209;-61
2021/07/11 07:35:20;;;;;;;8.35;6.38;;;;;;;;;;5074034;28;20216;-61
2021/07/11 07:37:48;;;;;;;6.95;6.35;;;;;;;;;;5084824;28;20199;-62
2021/07/11 07:40:17;;;;;;;8.60;6.35;;;;;;;;;;5114315;28;20557;-61
2021/07/11 07:42:47;;;;;;;7.03;5.93;;;;;;;;;;5115639;28;20252;-60
2021/07/11 07:45:16;;;;;;;6.45;5.85;;;;;;;;;;5118182;28;20286;-60
2021/07/11 07:47:44;;;;;;;6.53;6.00;;;;;;;;;;5101344;28;20565;-61
2021/07/11 07:50:13;;;;;;;6.60;6.10;;;;;;;;;;5095740;28;20272;-61
2021/07/11 07:52:41;;;;;;;6.00;5.40;;;;;;;;;;5096363;28;20208;-60
2021/07/11 07:55:10;;;;;;;5.95;5.45;;;;;;;;;;5095931;28;20338;-60
2021/07/11 07:57:39;;;;;;;5.80;5.30;;;;;;;;;;5095279;28;20200;-60
2021/07/11 08:00:11;;;;;;;6.03;5.00;;;;;;;;;;5096781;28;20207;-60
2021/07/11 08:02:39;;;;;;;6.07;5.57;;;;;;;;;;5095135;28;20267;-61
2021/07/11 08:05:08;;;;;;;6.93;5.38;;;;;;;;;;5093298;28;20600;-62
2021/07/11 08:07:36;;;;;;;6.00;5.50;;;;;;;;;;5093553;28;20200;-61
2021/07/11 08:10:05;;;;;;;6.72;6.07;;;;;;;;;;5093763;28;20618;-62
2021/07/11 08:12:33;;;;;;;5.60;5.10;;;;;;;;;;5093645;28;20202;-60
2021/07/11 08:15:01;;;;;;;6.00;5.50;;;;;;;;;;5093211;28;20226;-60
2021/07/11 08:17:31;;;;;;;6.10;5.50;;;;;;;;;;5093502;28;20200;-61
2021/07/11 08:20:00;;;;;;;5.20;4.70;;;;;;;;;;5093191;28;20216;-62
2021/07/11 08:22:28;;;;;;;6.30;5.00;;;;;;;;;;5093149;28;20245;-61
2021/07/11 08:24:56;;;;;;;5.80;5.30;;;;;;;;;;5093164;28;20199;-60
2021/07/11 08:27:26;;;;;;;5.43;4.93;;;;;;;;;;5093309;28;20206;-61
2021/07/11 08:29:54;;;;;;;5.53;4.70;;;;;;;;;;5093231;28;20290;-61
2021/07/11 08:32:23;;;;;;;6.35;4.60;;;;;;;;;;5092885;28;20640;-61
2021/07/11 08:34:53;;;;;;;5.72;4.80;;;;;;;;;;5092576;28;20687;-62
2021/07/11 08:37:21;;;;;;;5.05;4.65;;;;;;;;;;5092088;28;20663;-61
2021/07/11 08:39:49;;;;;;;5.50;5.00;;;;;;;;;;5092366;28;20235;-59
2021/07/11 08:42:19;;;;;;;5.53;4.47;;;;;;;;;;5092514;28;20559;-60
2021/07/11 08:44:48;;;;;;;5.40;5.00;;;;;;;;;;5092708;28;20184;-60
2021/07/11 08:47:16;;;;;;;5.32;4.82;;;;;;;;;;5092993;28;20320;-61
2021/07/11 08:49:44;;;;;;;4.82;4.43;;;;;;;;;;5092115;28;20635;-60
2021/07/11 08:52:14;;;;;;;5.10;4.70;;;;;;;;;;5092501;28;20638;-60
2021/07/11 08:54:42;;;;;;;5.72;5.22;;;;;;;;;;5092471;28;20637;-60
2021/07/11 08:57:12;;;;;;;5.28;4.78;;;;;;;;;;5092558;28;20216;-60
2021/07/11 08:59:40;;;;;;;4.97;4.57;;;;;;;;;;5092480;28;20204;-60
2021/07/11 09:02:09;;;;;;;5.20;4.70;;;;;;;;;;5092930;28;20206;-60
2021/07/11 09:04:39;;;;;;;4.88;4.18;;;;;;;;;;5092737;28;20291;-59
2021/07/11 09:07:07;;;;;;;5.63;4.50;;;;;;;;;;5092537;28;20210;-60
2021/07/11 09:09:38;;;;;;;6.20;4.70;;;;;;;;;;5072065;28;20247;-60
2021/07/11 09:12:08;;;;;;;4.85;4.50;;;;;;;;;;5077729;28;20257;-60
2021/07/11 09:14:56;;;;;;;5.40;5.00;;;;;;;;;;5091280;28;20192;-60
2021/07/11 09:17:24;;;;;;;5.50;5.00;;;;;;;;;;5092575;28;20220;-59
2021/07/11 09:19:53;;;;;;;5.30;4.50;;;;;;;;;;5092734;28;20200;-61
2021/07/11 09:22:23;;;;;;;5.68;5.28;;;;;;;;;;5092467;28;20286;-60
2021/07/11 09:24:54;;;;;;;5.68;4.63;;;;;;;;;;5092482;28;20200;-63
2021/07/11 09:27:23;;;;;;;4.90;4.57;;;;;;;;;;5092633;28;20786;-61
2021/07/11 09:29:52;;;;;;;5.05;4.60;;;;;;;;;;5092135;28;20656;-61
2021/07/11 09:32:39;;;;;;;4.75;4.35;;;;;;;;;;5092237;28;20216;-60
2021/07/11 09:35:08;;;;;;;4.93;4.53;;;;;;;;;;5092205;28;20656;-60
2021/07/11 09:37:37;;;;;;;4.43;4.13;;;;;;;;;;5088306;28;20264;-61
2021/07/11 09:40:08;;;;;;;4.72;4.32;;;;;;;;;;5072105;28;20207;-60
2021/07/11 09:42:37;;;;;;;4.55;4.15;;;;;;;;;;5072028;28;20707;-60
2021/07/11 09:45:06;;;;;;;5.75;5.35;;;;;;;;;;5071921;28;20255;-62
2021/07/11 09:47:34;;;;;;;4.15;3.65;;;;;;;;;;5087399;28;20210;-61
2021/07/11 09:50:05;;;;;;;4.03;3.60;;;;;;;;;;5095934;28;20249;-60
2021/07/11 09:52:34;;;;;;;4.03;3.60;;;;;;;;;;5096193;28;20187;-61
2021/07/11 09:55:10;;;;;;;3.92;3.63;;;;;;;;;;5095791;28;20689;-61
2021/07/11 09:57:39;;;;;;;4.18;3.80;;;;;;;;;;5095323;28;20303;-62
2021/07/11 10:00:19;;;;;;;3.67;3.38;;;;;;;;;;5095392;28;20652;-62
2021/07/11 10:02:48;;;;;;;4.18;3.88;;;;;;;;;;5095879;28;20206;-61
2021/07/11 10:05:17;;;;;;;4.13;3.83;;;;;;;;;;5093244;28;20216;-61
2021/07/11 10:07:46;;;;;;;4.45;3.80;;;;;;;;;;5095447;28;20202;-63
2021/07/11 10:10:18;;;;;;;4.05;3.75;;;;;;;;;;5093317;28;20196;-59
2021/07/11 10:12:46;;;;;;;4.43;4.03;;;;;;;;;;5095574;28;20262;-61
2021/07/11 10:15:15;;;;;;;4.07;3.78;;;;;;;;;;5095875;28;20211;-61
2021/07/11 10:17:45;;;;;;;4.18;3.88;;;;;;;;;;5095507;28;20216;-61
2021/07/11 10:20:14;;;;;;;4.00;3.70;;;;;;;;;;5095462;28;20222;-62
2021/07/11 10:22:44;;;;;;;4.28;3.60;;;;;;;;;;5095600;28;20200;-61
2021/07/11 10:25:14;;;;;;;3.83;3.53;;;;;;;;;;5095048;28;20287;-62
2021/07/11 10:27:44;;;;;;;3.75;3.45;;;;;;;;;;5092283;28;20181;-61
2021/07/11 10:30:12;;;;;;;3.50;3.30;;;;;;;;;;5095228;28;20210;-61
2021/07/11 10:32:41;;;;;;;3.72;3.25;;;;;;;;;;5095980;28;20299;-62
2021/07/11 10:35:10;;;;;;;3.28;3.08;;;;;;;;;;5097213;28;20299;-60
2021/07/11 10:37:45;;;;;;;3.67;3.47;;;;;;;;;;5091460;28;20717;-61
2021/07/11 10:40:16;;;;;;;4.20;3.90;;;;;;;;;;5075029;28;20303;-61
2021/07/11 10:42:49;;;;;;;4.20;3.75;;;;;;;;;;5074828;28;20186;-62
2021/07/11 10:45:19;;;;;;;4.25;3.88;;;;;;;;;;5074949;28;20268;-61
2021/07/11 10:47:47;;;;;;;4.05;3.65;;;;;;;;;;5090992;28;20282;-61
2021/07/11 10:50:27;;;;;;;3.85;3.55;;;;;;;;;;5094714;28;20231;-61
2021/07/11 10:52:55;;;;;;;4.07;3.60;;;;;;;;;;5095194;28;20245;-62
2021/07/11 10:55:24;;;;;;;3.75;3.55;;;;;;;;;;5094885;28;20295;-60
2021/07/11 10:57:53;;;;;;;3.90;3.60;;;;;;;;;;5094511;28;20326;-61
2021/07/11 11:00:22;;;;;;;4.43;3.53;;;;;;;;;;5094623;28;20731;-62
2021/07/11 11:02:51;;;;;;;3.65;3.45;;;;;;;;;;5094826;28;20232;-61
2021/07/11 11:05:23;;;;;;;3.97;3.67;;;;;;;;;;5094448;28;20203;-60
2021/07/11 11:07:53;;;;;;;4.07;3.78;;;;;;;;;;5094732;28;20283;-61
2021/07/11 11:10:22;;;;;;;4.20;3.90;;;;;;;;;;5094177;28;20198;-61
2021/07/11 11:13:01;;;;;;;4.25;3.85;;;;;;;;;;5094387;28;20283;-62
2021/07/11 11:15:34;;;;;;;4.40;4.10;;;;;;;;;;5093988;28;20188;-61
2021/07/11 11:18:12;;;;;;;4.82;4.43;;;;;;;;;;5093368;28;20289;-60
2021/07/11 11:20:40;;;;;;;4.10;3.80;;;;;;;;;;5091072;28;20184;-62
2021/07/11 11:23:09;;;;;;;4.20;3.90;;;;;;;;;;5093698;28;20196;-61
2021/07/11 11:25:38;;;;;;;4.78;4.20;;;;;;;;;;5094300;28;20204;-60
2021/07/11 11:28:07;;;;;;;5.40;4.97;;;;;;;;;;5074319;28;20215;-61
2021/07/11 11:30:36;;;;;;;5.20;4.75;;;;;;;;;;5073682;28;20300;-60
2021/07/11 11:33:04;;;;;;;5.05;4.68;;;;;;;;;;5073494;28;20645;-60
2021/07/11 11:35:33;;;;;;;5.00;4.60;;;;;;;;;;5073326;28;20203;-61
2021/07/11 11:38:03;;;;;;;4.70;4.35;;;;;;;;;;5073636;28;20282;-61
2021/07/11 11:40:31;;;;;;;5.25;4.85;;;;;;;;;;5073272;28;20562;-60
2021/07/11 11:43:00;;;;;;;5.03;4.63;;;;;;;;;;5073641;28;20195;-61
2021/07/11 11:45:34;;;;;;;5.45;4.93;;;;;;;;;;5073669;28;20193;-61
2021/07/11 11:48:04;;;;;;;4.82;4.43;;;;;;;;;;5091744;28;20279;-60
2021/07/11 11:50:38;;;;;;;5.20;4.80;;;;;;;;;;5092828;28;20282;-61
2021/07/11 11:53:08;;;;;;;5.10;4.70;;;;;;;;;;5093132;28;20611;-60
2021/07/11 11:55:36;;;;;;;5.20;4.80;;;;;;;;;;5093615;28;20234;-61
2021/07/11 11:58:05;;;;;;;5.45;5.03;;;;;;;;;;5093366;28;20318;-60
2021/07/11 12:00:35;;;;;;;4.70;4.40;;;;;;;;;;5093420;28;20631;-60
2021/07/11 12:03:05;;;;;;;5.22;4.82;;;;;;;;;;5093107;28;20200;-60
2021/07/11 12:05:35;;;;;;;4.68;4.35;;;;;;;;;;5092494;28;20199;-60
2021/07/11 12:08:18;;;;;;;4.82;4.53;;;;;;;;;;5093351;28;20242;-60
2021/07/11 12:10:47;;;;;;;5.32;4.72;;;;;;;;;;5092165;28;20206;-60
2021/07/11 12:13:22;;;;;;;4.80;4.47;;;;;;;;;;5093160;28;20204;-60
2021/07/11 12:16:01;;;;;;;4.60;4.30;;;;;;;;;;5093161;28;20187;-61
2021/07/11 12:18:29;;;;;;;4.38;4.07;;;;;;;;;;5092671;28;20259;-60
2021/07/11 12:20:58;;;;;;;5.65;4.78;;;;;;;;;;5092534;28;20294;-61
2021/07/11 12:23:26;;;;;;;5.13;4.82;;;;;;;;;;5092794;28;20204;-60
2021/07/11 12:26:01;;;;;;;4.72;4.43;;;;;;;;;;5092557;28;20295;-61
2021/07/11 12:28:32;;;;;;;4.90;4.50;;;;;;;;;;5093041;28;20209;-61
2021/07/11 12:31:02;;;;;;;5.10;4.60;;;;;;;;;;5092987;28;20207;-60
2021/07/11 12:33:32;;;;;;;15.68;5.38;;;;;;;;;;5092492;28;20564;-61
2021/07/11 12:36:01;;;;;;;4.97;4.32;;;;;;;;;;5092481;28;20188;-61
2021/07/11 12:38:30;;;;;;;4.70;4.40;;;;;;;;;;5092375;28;20644;-61
2021/07/11 12:40:59;;;;;;;5.30;4.57;;;;;;;;;;5092800;28;20303;-62
2021/07/11 12:43:30;;;;;;;5.07;4.60;;;;;;;;;;5092629;28;20253;-60
2021/07/11 12:46:00;;;;;;;4.90;4.50;;;;;;;;;;5092464;28;20781;-61
2021/07/11 12:48:36;;;;;;;4.82;4.43;;;;;;;;;;5092226;28;20207;-60
2021/07/11 12:51:18;;;;;;;4.57;4.20;;;;;;;;;;5091798;28;20738;-61
2021/07/11 12:53:46;;;;;;;5.10;4.78;;;;;;;;;;5072400;28;20181;-60
2021/07/11 12:56:16;;;;;;;5.25;4.85;;;;;;;;;;5072293;28;20201;-61
2021/07/11 12:58:45;;;;;;;5.65;5.10;;;;;;;;;;5071887;28;20230;-60
2021/07/11 13:01:13;;;;;;;5.88;5.25;;;;;;;;;;5072350;28;20203;-61
2021/07/11 13:03:43;;;;;;;6.93;6.32;;;;;;;;;;5072005;28;20288;-61
2021/07/11 13:06:14;;;;;;;6.72;6.22;;;;;;;;;;5072011;28;20291;-61
2021/07/11 13:08:43;;;;;;;5.40;5.00;;;;;;;;;;5072237;28;20181;-61
2021/07/11 13:11:12;;;;;;;6.70;6.10;;;;;;;;;;5072411;28;20254;-62
2021/07/11 13:13:40;;;;;;;6.10;5.70;;;;;;;;;;5072310;28;20196;-61
2021/07/11 13:16:08;;;;;;;6.10;5.60;;;;;;;;;;5072240;28;20224;-61
2021/07/11 13:18:36;;;;;;;5.78;5.22;;;;;;;;;;5074970;28;20215;-60
2021/07/11 13:21:06;;;;;;;6.15;5.65;;;;;;;;;;5092432;28;20200;-60
2021/07/11 13:23:34;;;;;;;5.85;5.35;;;;;;;;;;5096542;28;20224;-60
2021/07/11 13:26:03;;;;;;;6.50;5.90;;;;;;;;;;5096436;28;20219;-61
2021/07/11 13:28:31;;;;;;;6.05;5.50;;;;;;;;;;5093895;28;20218;-61
2021/07/11 13:30:59;;;;;;;6.60;5.40;;;;;;;;;;5080082;28;20236;-62
2021/07/11 13:33:28;;;;;;;5.60;5.20;;;;;;;;;;5086789;28;20216;-61
2021/07/11 13:35:56;;;;;;;5.95;5.43;;;;;;;;;;5095938;28;20295;-60
2021/07/11 13:38:26;;;;;;;5.22;4.82;;;;;;;;;;5095641;28;20887;-60
2021/07/11 13:40:54;;;;;;;5.50;5.00;;;;;;;;;;5096158;28;20204;-61
2021/07/11 13:43:22;;;;;;;6.32;5.72;;;;;;;;;;5095859;28;20656;-61
2021/07/11 13:45:50;;;;;;;6.13;5.72;;;;;;;;;;5095701;28;20231;-60
2021/07/11 13:48:19;;;;;;;5.60;5.18;;;;;;;;;;5076747;28;20204;-60
2021/07/11 13:50:47;;;;;;;5.60;5.10;;;;;;;;;;5095202;28;20630;-61
2021/07/11 13:53:19;;;;;;;5.53;5.03;;;;;;;;;;5096023;28;20191;-61
2021/07/11 13:55:49;;;;;;;5.70;5.18;;;;;;;;;;5094259;28;20294;-60
2021/07/11 13:58:18;;;;;;;5.65;5.25;;;;;;;;;;5095105;28;20302;-60
2021/07/11 14:00:47;;;;;;;5.60;5.10;;;;;;;;;;5075171;28;20219;-62
2021/07/11 14:03:15;;;;;;;5.40;5.00;;;;;;;;;;5075314;28;20200;-60
2021/07/11 14:05:43;;;;;;;5.80;5.40;;;;;;;;;;5077488;28;20200;-61
2021/07/11 14:08:11;;;;;;;5.70;5.22;;;;;;;;;;5081943;28;20205;-61
2021/07/11 14:10:39;;;;;;;6.10;5.60;;;;;;;;;;5090761;28;20534;-61
2021/07/11 14:13:09;;;;;;;6.03;5.53;;;;;;;;;;5094744;28;20196;-60
2021/07/11 14:15:38;;;;;;;5.90;5.40;;;;;;;;;;5094677;28;20204;-61
2021/07/11 14:18:07;;;;;;;6.10;5.60;;;;;;;;;;5094713;28;22617;-61
2021/07/11 14:20:35;;;;;;;5.82;5.22;;;;;;;;;;5094523;28;20196;-61
2021/07/11 14:23:03;;;;;;;5.60;5.10;;;;;;;;;;5088655;28;20197;-61
2021/07/11 14:25:34;;;;;;;5.38;4.97;;;;;;;;;;5093369;28;20294;-61
2021/07/11 14:28:02;;;;;;;5.13;4.72;;;;;;;;;;5095115;28;20283;-60
2021/07/11 14:30:35;;;;;;;6.07;5.68;;;;;;;;;;5095089;28;20218;-61
2021/07/11 14:33:03;;;;;;;5.75;5.35;;;;;;;;;;5094044;28;20208;-61
2021/07/11 14:35:31;;;;;;;6.03;5.53;;;;;;;;;;5094593;28;20210;-61
2021/07/11 14:37:59;;;;;;;6.57;5.97;;;;;;;;;;5085960;28;20260;-60
2021/07/11 14:40:28;;;;;;;5.80;5.30;;;;;;;;;;5082353;28;20205;-59
2021/07/11 14:42:56;;;;;;;5.50;5.10;;;;;;;;;;5081627;28;20231;-61
2021/07/11 14:45:24;;;;;;;5.90;5.28;;;;;;;;;;5089671;28;20196;-60